Aviation Digital Data Service (ADDS)

Output produced by METARs form (2050 UTC 31 January 2023)
found at http://www.aviationweather.gov/metar/data/
 
NSFA 312000Z 05006KT 9999 FEW022 SCT050 BKN160 27/26 Q1009
NSFA 311900Z 07006KT 9999 FEW022 SCT048 BKN160 25/24 Q1009
NSFA 311800Z 08005KT 9999 FEW022 SCT170 BKN270 24/23 Q1009
NSFA 311700Z 10004KT 9999 FEW022 SCT170 23/23 Q1009
NSFA 311600Z 09005KT 9999 FEW020 SCT160 23/23 Q1008
NSFA 311500Z 10003KT 9999 FEW020 SCT044 BKN140 23/23 Q1008
NSFA 311400Z 07005KT 9999 FEW020 SCT044 BKN140 23/23 Q1008
NSFA 311300Z 10004KT 9999 FEW020 SCT042 BKN130 23/23 Q1008
NSFA 311200Z 03016KT 9000 +RA FEW017 BKN036 OVC100 24/24 Q1010 RERA
NSFA 311100Z 11003KT 9999 FEW020 BKN046 24/24 Q1010
NSFA 311000Z 11004KT 9999 FEW018TCU SCT022 BKN160 24/23 Q1010 RERA RMK TCU TO NW AND NNE
NSFA 310900Z 10008KT 060V130 9000 RA SCT018 BKN032 25/24 Q1010
NSFA 310800Z VRB03KT 9999 BKN023 25/24 Q1010
NSFA 310700Z 06004KT 9999 FEW025 BKN270 26/25 Q1009
NSFA 310600Z 03006KT 9999 FEW020 SCT130 BKN260 27/25 Q1009
NSFA 310500Z 08005KT 9999 FEW026 BKN240 28/25 Q1008
NSFA 310400Z 09005KT 9999 FEW025 SCT060 BKN260 27/24 Q1007 RERA
NSFA 310300Z 34005KT 9999 FEW022 SCT040 BKN180 30/26 Q1007
NSFA 310200Z 01004G15KT 9999 SCT018 SCT045 BKN170 30/26 Q1008
NSFA 310100Z 30005KT 9999 SCT018 BKN150 29/26 Q1008
NSFA 310000Z 01008KT 9999 FEW018 SCT045 BKN160 30/26 Q1009
NSFA 302300Z 33008KT 9999 SCT022 BKN180 29/25 Q1009
NSFA 302200Z 02010KT 9999 SCT022 BKN180 29/25 Q1009
NSFA 302100Z 02010KT 9999 SCT022 BKN180 29/25 Q1010
TAF NSFA 311710Z 3118/0118 04006KT 9999 SCT022 BKN100 
     PROB40 
     TEMPO 3118/3122 5000 TSRA SCT016CB BKN018 
     PROB40 
     TEMPO 0101/0118 5000 TSRA SCT016CB BKN018